Madison, AL

10:21 PM CDT on June 24, 2017 (GMT -0500)
MAR347 | | Change Station
Active Advisory: Flood Warning

Elev 764 ft 34.73 °N, 86.75 °W | Updated 98 days ago

Clear
Clear
57.0 °F
Feels Like 57.0 °F
N
0.0
Wind Variable Wind from North
Gusts 0.0 mph

Today
High -- | Low -- °F
--% Chance of Precip.
Yesterday
High -- | Low -- °F
Precip. -- in
Pressure 30.10 in
Visibility 10.0 miles
Clouds Clear
Dew Point 32.0 °F
Humidity 38%
Rainfall 0.10 in
Snow Depth Not available.
5:34 AM 8:03 PM
New Moon, 2% visible
METAR KHUA 250258Z AUTO 01005KT 10SM CLR 21/17 A3011 RMK AO2 SLP192 T02080165 52019 $
Pressure 30.10 in
Visibility 10.0 miles
Clouds Clear
Dew Point 32.0 °F
Humidity 38%
Rainfall 0.10 in
Snow Depth Not available.
5:34 AM 8:03 PM
New Moon, 2% visible
METAR KHUA 250258Z AUTO 01005KT 10SM CLR 21/17 A3011 RMK AO2 SLP192 T02080165 52019 $

Get Your Daily Forecast Email!

Thanks for signing up!

Be on the lookout for a verification email in your inbox.

You'll start receiving severe weather alerts in your inbox..

×

10-Day Weather Forecast

Almanac

Astronomy

Jun. 24, 2017 Rise Set
Actual Time
Civil Twilight
Nautical Twilight
Astronomical Twilight
Moon
Length of Visible Light
Length of Day
Tomorrow will be .
, % of the Moon is Illuminated

Today's Extremes

State Highs State Lows

Community

WunderPhotos

Category 6

Welcome to Category 6. This is the collective home for Weather Underground's featured writeups by Dr. Jeff Masters (right), Bob Henson (left), Chris Burt, and other regular contributors.

Nearby

Air Quality

  Air Quality AQ Index Pollutant
Not available.

Snow Depth

Station Depth Elevation

Earthquake Activity

City Distance Mag. Time & Date
Minimum magnitude displayed is 2.5.

Coastal Water Temperatures

Place Temperature

Stations

Nearby Weather Stations

Station Location Temp. Windchill Dew Point Humidity Wind Precip. Elev Updated Type
                   

Watches & Warnings

Flood Warning
Issued: 9:05 PM CDT Jun. 24, 2017 – National Weather Service

The National Weather Service in Huntsville al has issued a Flood
Warning
* until late Sunday night.
* At 8 PM Saturday the stage was 17.0 feet and rising.
* Flood stage is 17.0 feet.
* Minor flooding is forecast.
* Forecast... rise above flood stage late this evening and crest
near 18.5 feet by Sunday morning. The river will fall below flood
stage by late Sunday evening.
* Impact... at 19.0 feet... water begins to flood yards on the
downstream side of the Brownsboro Road bridge.
* Flood history... this crest compares to a previous crest of 17.8 feet
on Feb 16 2016.

River flood observed 12pm 6pm 12am 6am crest
location stage stg day time Sat Sat sun sun stg day time

Flint River
Brownsboro 17.0 17.0 Sat 8 PM 18.4 17.8 16.1 14.3 18.5 sun 7 am


Lat... Lon 3476 8649 3475 8638 3461 8639 3447 8647 3454 8655